Chesterfield, Canada
Current Conditions -  °F | °C
As of 10:00 AM on Friday 24 Oct 2014 (Local Time) from CYRT Reporting Station
Overcast Overcast  
Wind Chill: 15°   Ceiling: 1500
Heat Index: 30°   Visibility: 15mi
Dew Point: 23°   Wind: 29mph
Humidity: 75%   Direction: 110°ESE
Pressure: 29.95"   Gusts: 43mph
Location:  63.33°N, 90.7°W
Report Text: CYRT 241500Z 11025G37KT 15SM OVC015 M01/M05 A2995 RMK SC8 SLP144
Loading
Personal Weather Stations






























Interactive Weather Map
Tropical Storm Tracking
New forecast layout! Learn more

10-Day Weather Forecast

Advertisements
Track Severe Weather on mobile